sensor_id;sensor_type;location;lat;lon;timestamp;pressure;altitude;pressure_sealevel;temperature;humidity
57102;BME280;42982;54.558;18.508;2023-04-20T00:00:55;101603.84;;;7.76;79.87
57102;BME280;42982;54.558;18.508;2023-04-20T00:02:03;101595.44;;;7.72;79.77
57102;BME280;42982;54.558;18.508;2023-04-20T00:03:09;101614.53;;;7.76;79.70
57102;BME280;42982;54.558;18.508;2023-04-20T00:04:15;101614.53;;;7.76;79.34
57102;BME280;42982;54.558;18.508;2023-04-20T00:05:20;101604.41;;;7.78;79.40
57102;BME280;42982;54.558;18.508;2023-04-20T00:06:25;101604.53;;;7.83;79.47
57102;BME280;42982;54.558;18.508;2023-04-20T00:07:34;101604.19;;;7.79;79.34
57102;BME280;42982;54.558;18.508;2023-04-20T00:08:40;101610.09;;;7.81;79.38
57102;BME280;42982;54.558;18.508;2023-04-20T00:09:43;101610.09;;;7.81;79.10
57102;BME280;42982;54.558;18.508;2023-04-20T00:10:47;101608.59;;;7.85;79.01
57102;BME280;42982;54.558;18.508;2023-04-20T00:11:53;101611.63;;;7.89;79.19
57102;BME280;42982;54.558;18.508;2023-04-20T00:12:58;101610.56;;;7.90;78.98
57102;BME280;42982;54.558;18.508;2023-04-20T00:14:08;101605.78;;;7.92;78.74
57102;BME280;42982;54.558;18.508;2023-04-20T00:15:11;101612.56;;;7.95;78.87
57102;BME280;42982;54.558;18.508;2023-04-20T00:16:17;101612.31;;;7.96;78.37
57102;BME280;42982;54.558;18.508;2023-04-20T00:17:21;101620.13;;;7.98;78.70
57102;BME280;42982;54.558;18.508;2023-04-20T00:18:22;101612.91;;;7.98;78.69
57102;BME280;42982;54.558;18.508;2023-04-20T00:19:27;101609.16;;;7.99;78.51
57102;BME280;42982;54.558;18.508;2023-04-20T00:20:33;101614.50;;;7.99;78.79
57102;BME280;42982;54.558;18.508;2023-04-20T00:21:39;101609.41;;;7.98;78.49
57102;BME280;42982;54.558;18.508;2023-04-20T00:22:43;101618.59;;;8.02;78.55
57102;BME280;42982;54.558;18.508;2023-04-20T00:23:45;101616.97;;;8.01;78.46
57102;BME280;42982;54.558;18.508;2023-04-20T00:24:48;101623.13;;;8.01;78.53
57102;BME280;42982;54.558;18.508;2023-04-20T00:25:54;101616.13;;;8.00;78.39
57102;BME280;42982;54.558;18.508;2023-04-20T00:26:58;101612.41;;;8.01;77.89
57102;BME280;42982;54.558;18.508;2023-04-20T00:28:03;101615.31;;;8.00;77.88
57102;BME280;42982;54.558;18.508;2023-04-20T00:29:10;101611.63;;;8.01;78.01
57102;BME280;42982;54.558;18.508;2023-04-20T00:30:16;101614.03;;;8.02;77.78
57102;BME280;42982;54.558;18.508;2023-04-20T00:31:18;101610.09;;;8.05;77.58
57102;BME280;42982;54.558;18.508;2023-04-20T00:32:20;101610.09;;;8.05;77.65
57102;BME280;42982;54.558;18.508;2023-04-20T00:33:27;101615.19;;;8.06;77.96
57102;BME280;42982;54.558;18.508;2023-04-20T00:34:32;101614.63;;;8.04;77.33
57102;BME280;42982;54.558;18.508;2023-04-20T00:35:35;101616.72;;;8.02;77.20
57102;BME280;42982;54.558;18.508;2023-04-20T00:36:41;101616.13;;;8.00;77.09
57102;BME280;42982;54.558;18.508;2023-04-20T00:37:43;101621.63;;;7.94;77.26
57102;BME280;42982;54.558;18.508;2023-04-20T00:38:47;101608.34;;;7.87;76.82
57102;BME280;42982;54.558;18.508;2023-04-20T00:39:54;101614.53;;;7.76;76.71
57102;BME280;42982;54.558;18.508;2023-04-20T00:40:57;101609.19;;;7.76;77.00
57102;BME280;42982;54.558;18.508;2023-04-20T00:42:07;101605.47;;;7.77;77.06
57102;BME280;42982;54.558;18.508;2023-04-20T00:43:14;101616.16;;;7.77;76.60
57102;BME280;42982;54.558;18.508;2023-04-20T00:44:22;101605.78;;;7.69;76.66
57102;BME280;42982;54.558;18.508;2023-04-20T00:45:26;101615.94;;;7.66;76.61
57102;BME280;42982;54.558;18.508;2023-04-20T00:46:33;101607.09;;;7.66;76.95
57102;BME280;42982;54.558;18.508;2023-04-20T00:47:34;101604.78;;;7.70;76.50
57102;BME280;42982;54.558;18.508;2023-04-20T00:48:41;101601.38;;;7.74;76.74
57102;BME280;42982;54.558;18.508;2023-04-20T00:49:45;101608.47;;;7.69;76.52
57102;BME280;42982;54.558;18.508;2023-04-20T00:50:50;101598.69;;;7.62;76.28
57102;BME280;42982;54.558;18.508;2023-04-20T00:51:52;101605.56;;;7.70;76.41
57102;BME280;42982;54.558;18.508;2023-04-20T00:52:54;101611.63;;;7.65;76.61
57102;BME280;42982;54.558;18.508;2023-04-20T00:53:59;101609.41;;;7.62;76.44
57102;BME280;42982;54.558;18.508;2023-04-20T00:55:02;101614.28;;;7.65;76.62
57102;BME280;42982;54.558;18.508;2023-04-20T00:56:11;101611.06;;;7.63;76.72
57102;BME280;42982;54.558;18.508;2023-04-20T00:57:17;101615.13;;;7.54;76.86
57102;BME280;42982;54.558;18.508;2023-04-20T00:58:19;101608.72;;;7.55;76.93
57102;BME280;42982;54.558;18.508;2023-04-20T00:59:21;101607.09;;;7.54;76.81
57102;BME280;42982;54.558;18.508;2023-04-20T01:00:25;101607.06;;;7.42;77.02
57102;BME280;42982;54.558;18.508;2023-04-20T01:01:39;101610.69;;;7.48;76.94
57102;BME280;42982;54.558;18.508;2023-04-20T01:02:43;101607.88;;;7.43;77.18
57102;BME280;42982;54.558;18.508;2023-04-20T01:03:47;101604.19;;;7.44;77.12
57102;BME280;42982;54.558;18.508;2023-04-20T01:04:54;101609.28;;;7.46;77.32
57102;BME280;42982;54.558;18.508;2023-04-20T01:06:02;101605.69;;;7.40;77.25
57102;BME280;42982;54.558;18.508;2023-04-20T01:07:05;101605.31;;;7.36;76.89
57102;BME280;42982;54.558;18.508;2023-04-20T01:08:12;101604.84;;;7.28;76.67
57102;BME280;42982;54.558;18.508;2023-04-20T01:09:15;101600.53;;;7.27;76.87
57102;BME280;42982;54.558;18.508;2023-04-20T01:10:18;101601.00;;;7.24;76.88
57102;BME280;42982;54.558;18.508;2023-04-20T01:11:23;101599.94;;;7.25;76.72
57102;BME280;42982;54.558;18.508;2023-04-20T01:12:27;101596.81;;;7.28;76.96
57102;BME280;42982;54.558;18.508;2023-04-20T01:13:31;101598.78;;;7.20;76.72
57102;BME280;42982;54.558;18.508;2023-04-20T01:14:40;101597.03;;;7.14;76.63
57102;BME280;42982;54.558;18.508;2023-04-20T01:15:49;101599.13;;;7.12;76.76
57102;BME280;42982;54.558;18.508;2023-04-20T01:16:52;101592.38;;;7.10;77.37
57102;BME280;42982;54.558;18.508;2023-04-20T01:17:57;101589.13;;;7.08;77.32
57102;BME280;42982;54.558;18.508;2023-04-20T01:18:59;101593.06;;;7.05;77.65
57102;BME280;42982;54.558;18.508;2023-04-20T01:20:13;101569.81;;;6.94;77.38
57102;BME280;42982;54.558;18.508;2023-04-20T01:21:20;101595.16;;;7.03;77.36
57102;BME280;42982;54.558;18.508;2023-04-20T01:22:28;101595.63;;;7.00;77.63
57102;BME280;42982;54.558;18.508;2023-04-20T01:23:34;101598.50;;;6.99;77.86
57102;BME280;42982;54.558;18.508;2023-04-20T01:24:46;101599.31;;;6.99;77.85
57102;BME280;42982;54.558;18.508;2023-04-20T01:25:47;101601.28;;;6.92;78.09
57102;BME280;42982;54.558;18.508;2023-04-20T01:26:48;101604.56;;;6.94;78.38
57102;BME280;42982;54.558;18.508;2023-04-20T01:27:53;101602.69;;;6.94;78.17
57102;BME280;42982;54.558;18.508;2023-04-20T01:28:58;101587.91;;;6.92;78.08
57102;BME280;42982;54.558;18.508;2023-04-20T01:30:08;101602.78;;;6.88;78.06
57102;BME280;42982;54.558;18.508;2023-04-20T01:31:15;101597.44;;;6.88;78.10
57102;BME280;42982;54.558;18.508;2023-04-20T01:32:21;101601.75;;;6.89;78.09
57102;BME280;42982;54.558;18.508;2023-04-20T01:33:25;101602.06;;;6.81;78.64
57102;BME280;42982;54.558;18.508;2023-04-20T01:34:28;101590.56;;;6.80;78.30
57102;BME280;42982;54.558;18.508;2023-04-20T01:35:30;101591.38;;;6.81;78.45
57102;BME280;42982;54.558;18.508;2023-04-20T01:36:32;101586.03;;;6.81;78.76
57102;BME280;42982;54.558;18.508;2023-04-20T01:37:38;101608.00;;;6.83;78.53
57102;BME280;42982;54.558;18.508;2023-04-20T01:38:44;101595.34;;;6.78;78.96
57102;BME280;42982;54.558;18.508;2023-04-20T01:39:52;101602.06;;;6.81;78.84
57102;BME280;42982;54.558;18.508;2023-04-20T01:41:06;101602.91;;;6.81;79.21
57102;BME280;42982;54.558;18.508;2023-04-20T01:42:08;101593.00;;;6.82;79.22
57102;BME280;42982;54.558;18.508;2023-04-20T01:43:11;101599.03;;;6.77;78.93
57102;BME280;42982;54.558;18.508;2023-04-20T01:44:12;101604.16;;;6.79;79.01
57102;BME280;42982;54.558;18.508;2023-04-20T01:45:19;101598.31;;;6.70;79.68
57102;BME280;42982;54.558;18.508;2023-04-20T01:46:22;101594.22;;;6.67;80.05
57102;BME280;42982;54.558;18.508;2023-04-20T01:47:27;101592.00;;;6.64;80.15
57102;BME280;42982;54.558;18.508;2023-04-20T01:48:32;101598.75;;;6.67;79.96
57102;BME280;42982;54.558;18.508;2023-04-20T01:49:35;101598.75;;;6.67;80.46
57102;BME280;42982;54.558;18.508;2023-04-20T01:50:36;101590.41;;;6.63;80.09
57102;BME280;42982;54.558;18.508;2023-04-20T01:51:41;101594.56;;;6.59;80.87
57102;BME280;42982;54.558;18.508;2023-04-20T01:52:44;101596.19;;;6.60;81.00
57102;BME280;42982;54.558;18.508;2023-04-20T01:53:53;101599.47;;;6.62;80.71
57102;BME280;42982;54.558;18.508;2023-04-20T01:54:54;101595.59;;;6.58;81.13
57102;BME280;42982;54.558;18.508;2023-04-20T01:56:03;101595.47;;;6.53;80.86
57102;BME280;42982;54.558;18.508;2023-04-20T01:57:06;101600.00;;;6.53;81.44
57102;BME280;42982;54.558;18.508;2023-04-20T01:58:08;101608.22;;;6.51;81.52
57102;BME280;42982;54.558;18.508;2023-04-20T01:59:13;101598.22;;;6.46;81.85
57102;BME280;42982;54.558;18.508;2023-04-20T02:00:14;101603.19;;;6.43;82.18
57102;BME280;42982;54.558;18.508;2023-04-20T02:01:17;101604.22;;;6.42;81.92
57102;BME280;42982;54.558;18.508;2023-04-20T02:02:19;101590.97;;;6.35;82.00
57102;BME280;42982;54.558;18.508;2023-04-20T02:03:27;101605.28;;;6.41;82.14
57102;BME280;42982;54.558;18.508;2023-04-20T02:04:30;101603.41;;;6.41;82.43
57102;BME280;42982;54.558;18.508;2023-04-20T02:05:32;101606.31;;;6.40;82.38
57102;BME280;42982;54.558;18.508;2023-04-20T02:06:34;101603.63;;;6.40;82.38
57102;BME280;42982;54.558;18.508;2023-04-20T02:07:36;101603.06;;;6.38;82.12
57102;BME280;42982;54.558;18.508;2023-04-20T02:08:42;101608.41;;;6.38;82.64
57102;BME280;42982;54.558;18.508;2023-04-20T02:09:51;101604.91;;;6.37;82.33
57102;BME280;42982;54.558;18.508;2023-04-20T02:10:57;101602.25;;;6.37;82.59
57102;BME280;42982;54.558;18.508;2023-04-20T02:12:05;101608.84;;;6.35;82.78
57102;BME280;42982;54.558;18.508;2023-04-20T02:13:07;101616.25;;;6.33;82.88
57102;BME280;42982;54.558;18.508;2023-04-20T02:14:16;101610.34;;;6.31;83.17
57102;BME280;42982;54.558;18.508;2023-04-20T02:15:17;101607.88;;;6.29;82.80
57102;BME280;42982;54.558;18.508;2023-04-20T02:16:19;101614.28;;;6.28;83.40
57102;BME280;42982;54.558;18.508;2023-04-20T02:17:24;101616.72;;;6.30;83.28
57102;BME280;42982;54.558;18.508;2023-04-20T02:18:26;101614.28;;;6.28;83.36
57102;BME280;42982;54.558;18.508;2023-04-20T02:19:35;101615.28;;;6.27;83.49
57102;BME280;42982;54.558;18.508;2023-04-20T02:20:40;101616.59;;;6.24;83.62
57102;BME280;42982;54.558;18.508;2023-04-20T02:21:43;101612.63;;;6.27;83.45
57102;BME280;42982;54.558;18.508;2023-04-20T02:22:45;101619.81;;;6.26;83.42
57102;BME280;42982;54.558;18.508;2023-04-20T02:23:52;101619.25;;;6.24;83.21
57102;BME280;42982;54.558;18.508;2023-04-20T02:24:53;101617.16;;;6.26;83.06
57102;BME280;42982;54.558;18.508;2023-04-20T02:25:55;101614.47;;;6.26;83.65
57102;BME280;42982;54.558;18.508;2023-04-20T02:27:02;101620.06;;;6.25;83.16
57102;BME280;42982;54.558;18.508;2023-04-20T02:28:06;101618.03;;;6.20;83.24
57102;BME280;42982;54.558;18.508;2023-04-20T02:29:13;101610.63;;;6.22;83.60
57102;BME280;42982;54.558;18.508;2023-04-20T02:30:16;101615.38;;;6.20;83.29
57102;BME280;42982;54.558;18.508;2023-04-20T02:31:19;101614.56;;;6.20;83.22
57102;BME280;42982;54.558;18.508;2023-04-20T02:32:20;101615.38;;;6.20;83.38
57102;BME280;42982;54.558;18.508;2023-04-20T02:33:24;101618.03;;;6.20;83.79
57102;BME280;42982;54.558;18.508;2023-04-20T02:34:28;101612.50;;;6.22;83.34
57102;BME280;42982;54.558;18.508;2023-04-20T02:35:34;101618.50;;;6.17;83.60
57102;BME280;42982;54.558;18.508;2023-04-20T02:36:37;101621.31;;;6.22;83.23
57102;BME280;42982;54.558;18.508;2023-04-20T02:37:38;101613.06;;;6.24;83.24
57102;BME280;42982;54.558;18.508;2023-04-20T02:38:45;101616.59;;;6.24;82.83
57102;BME280;42982;54.558;18.508;2023-04-20T02:39:51;101622.72;;;6.25;83.46
57102;BME280;42982;54.558;18.508;2023-04-20T02:40:55;101622.50;;;6.26;83.26
57102;BME280;42982;54.558;18.508;2023-04-20T02:41:57;101624.16;;;6.28;83.30
57102;BME280;42982;54.558;18.508;2023-04-20T02:42:59;101618.41;;;6.24;83.30
57102;BME280;42982;54.558;18.508;2023-04-20T02:44:03;101625.78;;;6.29;83.00
57102;BME280;42982;54.558;18.508;2023-04-20T02:45:10;101623.31;;;6.27;82.55
57102;BME280;42982;54.558;18.508;2023-04-20T02:46:17;101631.31;;;6.27;82.85
57102;BME280;42982;54.558;18.508;2023-04-20T02:47:22;101618.19;;;6.25;82.79
57102;BME280;42982;54.558;18.508;2023-04-20T02:48:32;101617.16;;;6.26;82.85
57102;BME280;42982;54.558;18.508;2023-04-20T02:49:36;101627.38;;;6.30;82.50
57102;BME280;42982;54.558;18.508;2023-04-20T02:50:40;101615.91;;;6.29;82.47
57102;BME280;42982;54.558;18.508;2023-04-20T02:51:49;101624.88;;;6.35;82.03
57102;BME280;42982;54.558;18.508;2023-04-20T02:52:57;101621.41;;;6.34;81.96
57102;BME280;42982;54.558;18.508;2023-04-20T02:54:06;101627.75;;;6.33;81.63
57102;BME280;42982;54.558;18.508;2023-04-20T02:55:15;101628.59;;;6.34;82.21
57102;BME280;42982;54.558;18.508;2023-04-20T02:56:27;101619.53;;;6.35;82.20
57102;BME280;42982;54.558;18.508;2023-04-20T02:57:34;101622.78;;;6.37;82.10
57102;BME280;42982;54.558;18.508;2023-04-20T02:58:39;101617.00;;;6.40;81.99
57102;BME280;42982;54.558;18.508;2023-04-20T03:00:00;101618.63;;;6.41;81.53
57102;BME280;42982;54.558;18.508;2023-04-20T03:01:15;101621.66;;;6.44;81.51
57102;BME280;42982;54.558;18.508;2023-04-20T03:02:24;101617.94;;;6.45;81.48
57102;BME280;42982;54.558;18.508;2023-04-20T03:03:33;101620.41;;;6.47;81.36
57102;BME280;42982;54.558;18.508;2023-04-20T03:04:37;101617.75;;;6.47;81.08
57102;BME280;42982;54.558;18.508;2023-04-20T03:05:49;101620.16;;;6.48;81.13
57102;BME280;42982;54.558;18.508;2023-04-20T03:06:53;101615.06;;;6.47;81.18
57102;BME280;42982;54.558;18.508;2023-04-20T03:08:03;101615.63;;;6.49;81.34
57102;BME280;42982;54.558;18.508;2023-04-20T03:09:06;101621.59;;;6.51;81.21
57102;BME280;42982;54.558;18.508;2023-04-20T03:10:27;101609.13;;;6.45;81.06
57102;BME280;42982;54.558;18.508;2023-04-20T03:11:39;101622.03;;;6.48;81.17
57102;BME280;42982;54.558;18.508;2023-04-20T03:12:43;101626.94;;;6.51;81.47
57102;BME280;42982;54.558;18.508;2023-04-20T03:14:06;101620.53;;;6.52;81.03
57102;BME280;42982;54.558;18.508;2023-04-20T03:15:10;101623.81;;;6.54;81.16
57102;BME280;42982;54.558;18.508;2023-04-20T03:16:21;101629.16;;;6.54;80.87
57102;BME280;42982;54.558;18.508;2023-04-20T03:17:30;101627.53;;;6.53;81.21
57102;BME280;42982;54.558;18.508;2023-04-20T03:18:32;101629.97;;;6.55;81.43
57102;BME280;42982;54.558;18.508;2023-04-20T03:19:36;101633.44;;;6.55;81.26
57102;BME280;42982;54.558;18.508;2023-04-20T03:20:41;101634.50;;;6.54;81.30
57102;BME280;42982;54.558;18.508;2023-04-20T03:21:45;101627.53;;;6.53;81.25
57102;BME280;42982;54.558;18.508;2023-04-20T03:22:47;101634.50;;;6.54;81.18
57102;BME280;42982;54.558;18.508;2023-04-20T03:23:55;101636.56;;;6.52;80.87
57102;BME280;42982;54.558;18.508;2023-04-20T03:25:00;101636.13;;;6.55;80.94
57102;BME280;42982;54.558;18.508;2023-04-20T03:26:16;101634.50;;;6.54;80.98
57102;BME280;42982;54.558;18.508;2023-04-20T03:27:44;101635.31;;;6.55;80.83
57102;BME280;42982;54.558;18.508;2023-04-20T03:28:51;101638.78;;;6.55;80.85
57102;BME280;42982;54.558;18.508;2023-04-20T03:29:58;101635.31;;;6.55;80.89
57102;BME280;42982;54.558;18.508;2023-04-20T03:31:00;101633.09;;;6.52;81.04
57102;BME280;42982;54.558;18.508;2023-04-20T03:32:07;101637.00;;;6.49;81.17
57102;BME280;42982;54.558;18.508;2023-04-20T03:33:13;101633.09;;;6.52;81.04
57102;BME280;42982;54.558;18.508;2023-04-20T03:34:17;101626.94;;;6.51;81.02
